createdAt,value
2023-01-11T00:01:50.403Z,67.05
2023-01-11T01:33:55.786Z,67.80
2023-01-11T01:47:06.485Z,67.91
2023-01-11T02:08:25.703Z,67.86
2023-01-11T02:14:56.422Z,67.69
2023-01-11T02:22:10.131Z,67.87
2023-01-11T03:17:29.222Z,68.13
2023-01-11T03:23:39.877Z,68.46
2023-01-11T03:37:16.147Z,68.64
2023-01-11T03:56:18.486Z,68.65
2023-01-11T04:02:17.593Z,68.52
2023-01-11T04:14:14.085Z,68.67
2023-01-11T04:20:41.641Z,68.68
2023-01-11T04:26:36.636Z,68.99
2023-01-11T04:40:21.635Z,69.20
2023-01-11T04:54:36.775Z,69.35
2023-01-11T05:22:59.579Z,69.98
2023-01-11T05:35:36.047Z,70.26
2023-01-11T05:41:40.849Z,70.35
2023-01-11T05:47:30.273Z,70.13
2023-01-11T05:53:38.923Z,69.78
2023-01-11T06:06:13.088Z,69.73
2023-01-11T06:12:17.491Z,69.76
2023-01-11T07:25:32.187Z,70.56
2023-01-11T07:31:04.548Z,70.40
2023-01-11T07:36:54.386Z,70.46
2023-01-11T07:42:32.812Z,70.46
2023-01-11T07:47:55.987Z,70.60
2023-01-11T07:53:28.183Z,71.21
2023-01-11T07:59:35.911Z,70.66
2023-01-11T08:06:29.720Z,70.58
2023-01-11T08:12:57.406Z,70.03
2023-01-11T08:26:53.123Z,69.28
2023-01-11T08:33:43.997Z,70.11
2023-01-11T08:39:55.472Z,69.88
2023-01-11T08:46:08.453Z,69.49
2023-01-11T08:51:34.580Z,69.46
2023-01-11T08:57:24.572Z,69.62
2023-01-11T09:03:33.872Z,69.90
2023-01-11T09:09:42.805Z,69.95
2023-01-11T09:17:27.756Z,69.46
2023-01-11T09:24:04.109Z,68.45
2023-01-11T09:30:09.148Z,67.82
2023-01-11T09:35:53.012Z,67.17
2023-01-11T09:43:15.678Z,66.93
2023-01-11T09:55:37.475Z,66.34
2023-01-11T10:02:02.751Z,66.83
2023-01-11T10:18:25.789Z,66.06
2023-01-11T10:21:53.633Z,65.66
2023-01-11T10:28:40.057Z,66.01
2023-01-11T10:34:26.887Z,64.21
2023-01-11T11:16:33.654Z,60.80
2023-01-11T11:29:17.275Z,60.77
2023-01-11T11:42:38.927Z,60.84
2023-01-11T12:03:08.156Z,59.49
2023-01-11T12:08:52.487Z,59.83
2023-01-11T12:20:59.433Z,59.40
2023-01-11T12:33:26.034Z,59.05
2023-01-11T12:40:03.755Z,58.89
2023-01-11T12:46:03.737Z,58.23
2023-01-11T12:56:22.695Z,57.86
2023-01-11T13:02:33.955Z,57.96
2023-01-11T13:08:53.421Z,57.63
2023-01-11T13:15:03.994Z,57.26
2023-01-11T13:21:31.982Z,56.83
2023-01-11T13:27:41.424Z,57.27
2023-01-11T13:33:17.797Z,57.39
2023-01-11T13:39:26.409Z,56.96
2023-01-11T13:45:44.470Z,57.62
2023-01-11T13:56:20.570Z,62.85
2023-01-11T14:02:28.171Z,61.35
2023-01-11T14:08:45.476Z,53.98
2023-01-11T14:14:37.451Z,54.07
2023-01-11T14:21:06.675Z,54.84
2023-01-11T14:27:17.497Z,55.94
2023-01-11T14:33:46.981Z,56.66
2023-01-11T14:39:46.491Z,57.74
2023-01-11T14:45:50.605Z,57.86
2023-01-11T14:56:34.075Z,58.69
2023-01-11T15:02:34.056Z,59.13
2023-01-11T15:08:36.455Z,59.54
2023-01-11T15:14:44.718Z,60.46
2023-01-11T15:20:36.441Z,60.35
2023-01-11T15:26:01.467Z,60.43
2023-01-11T15:32:38.410Z,60.87
2023-01-11T15:38:42.914Z,60.99
2023-01-11T15:45:08.702Z,61.45
2023-01-11T15:51:38.247Z,61.94
2023-01-11T15:57:43.758Z,62.13
2023-01-11T16:04:20.446Z,62.43
2023-01-11T16:10:07.494Z,63.98
2023-01-11T16:15:54.890Z,62.98
2023-01-11T16:22:07.790Z,63.19
2023-01-11T16:27:56.665Z,63.52
2023-01-11T16:33:53.452Z,63.63
2023-01-11T16:39:53.518Z,63.66
2023-01-11T16:45:36.628Z,63.87
2023-01-11T16:51:40.971Z,63.80
2023-01-11T16:57:39.811Z,63.81
2023-01-11T17:03:38.772Z,63.78
2023-01-11T17:09:50.228Z,63.71
2023-01-11T17:16:05.217Z,63.71
2023-01-11T17:22:00.814Z,64.02
2023-01-11T17:28:14.470Z,64.29
2023-01-11T17:33:38.789Z,64.44
2023-01-11T17:39:24.752Z,64.67
2023-01-11T17:45:35.246Z,68.58
2023-01-11T17:51:23.968Z,64.63
2023-01-11T17:57:29.397Z,64.59
2023-01-11T19:06:03.549Z,66.93
2023-01-11T19:12:01.129Z,67.11
2023-01-11T19:18:24.295Z,67.26
2023-01-11T19:24:39.501Z,67.22
2023-01-11T19:31:07.132Z,67.11
2023-01-11T19:36:40.578Z,67.40
2023-01-11T19:43:12.355Z,67.47
2023-01-11T19:54:48.594Z,67.59
2023-01-11T20:01:03.942Z,67.87
2023-01-11T20:07:36.811Z,67.87
2023-01-11T20:13:49.444Z,67.93
2023-01-11T20:19:58.964Z,69.18
2023-01-11T20:25:46.851Z,67.95
2023-01-11T20:31:28.598Z,67.17
2023-01-11T20:37:33.737Z,66.59
2023-01-11T20:43:17.627Z,66.71
2023-01-11T20:49:20.747Z,69.23
2023-01-11T20:55:44.710Z,67.17
2023-01-11T21:02:17.027Z,67.19
2023-01-11T21:08:09.350Z,67.02
2023-01-11T21:14:04.609Z,67.41
2023-01-11T21:20:03.564Z,67.55
2023-01-11T21:25:39.088Z,68.18
2023-01-11T21:31:52.466Z,68.27
2023-01-11T21:37:59.334Z,68.35
2023-01-11T21:44:03.503Z,68.50
2023-01-11T21:50:14.782Z,68.79
2023-01-11T21:56:08.878Z,68.74
2023-01-11T22:01:44.041Z,68.89
2023-01-11T22:07:12.959Z,69.23
2023-01-11T22:13:16.292Z,69.41
2023-01-11T22:18:41.807Z,69.11
2023-01-11T22:24:22.804Z,69.19
2023-01-11T22:30:34.104Z,69.29
2023-01-11T23:46:14.255Z,63.57
2023-01-11T23:52:31.283Z,63.23
2023-01-11T23:58:48.045Z,63.66
